createdAt,value
2023-09-02T00:01:15.092Z,101517.69
2023-09-02T00:06:16.806Z,101508.94
2023-09-02T00:11:18.408Z,101507.00
2023-09-02T00:16:20.357Z,101507.84
2023-09-02T00:21:22.087Z,101521.75
2023-09-02T00:26:23.697Z,101513.63
2023-09-02T00:31:25.595Z,101526.50
2023-09-02T00:36:29.093Z,101524.34
2023-09-02T00:41:35.584Z,101533.59
2023-09-02T00:46:37.328Z,101527.84
2023-09-02T00:51:39.530Z,101533.59
2023-09-02T00:56:41.774Z,101531.66
2023-09-02T01:01:46.549Z,101537.22
2023-09-02T01:06:48.302Z,101536.59
2023-09-02T01:11:50.224Z,101537.44
2023-09-02T01:16:51.948Z,101543.00
2023-09-02T01:22:20.281Z,101536.97
2023-09-02T01:28:05.299Z,101544.84
2023-09-02T01:33:10.206Z,101554.31
2023-09-02T01:38:13.136Z,101558.19
2023-09-02T01:43:22.234Z,101555.59
2023-09-02T01:48:27.341Z,101560.72
2023-09-02T01:53:30.377Z,101560.31
2023-09-02T01:58:32.112Z,101568.00
2023-09-02T02:03:52.591Z,101585.09
2023-09-02T02:09:04.245Z,101569.69
2023-09-02T02:14:07.332Z,101579.13
2023-09-02T02:19:09.387Z,101576.34
2023-09-02T02:24:11.049Z,101581.00
2023-09-02T02:29:12.674Z,101585.53
2023-09-02T02:34:15.677Z,101585.94
2023-09-02T02:39:17.987Z,101580.16
2023-09-02T02:44:19.835Z,101581.63
2023-09-02T02:49:21.498Z,101584.22
2023-09-02T02:54:23.477Z,101580.97
2023-09-02T02:59:25.544Z,101585.03
2023-09-02T03:04:27.885Z,101581.59
2023-09-02T03:09:29.605Z,101584.94
2023-09-02T03:14:31.384Z,101580.03
2023-09-02T03:19:33.154Z,101590.75
2023-09-02T03:24:34.848Z,101595.25
2023-09-02T03:29:36.621Z,101601.47
2023-09-02T03:34:38.889Z,101595.09
2023-09-02T03:39:40.771Z,101592.94
2023-09-02T03:44:42.551Z,101601.28
2023-09-02T03:49:44.216Z,101614.16
2023-09-02T03:54:46.650Z,101612.41
2023-09-02T03:59:49.855Z,101615.00
2023-09-02T04:04:52.435Z,101621.03
2023-09-02T04:09:56.145Z,101622.53
2023-09-02T04:14:57.912Z,101617.59
2023-09-02T04:20:01.617Z,101611.59
2023-09-02T04:25:06.182Z,101611.97
2023-09-02T04:30:10.153Z,101623.75
2023-09-02T04:35:11.908Z,101627.19
2023-09-02T04:40:15.360Z,101629.91
2023-09-02T04:45:18.211Z,101636.31
2023-09-02T04:50:21.678Z,101638.44
2023-09-02T04:55:25.971Z,101658.28
2023-09-02T05:00:28.197Z,101664.94
2023-09-02T05:05:31.083Z,101670.44
2023-09-02T05:10:32.886Z,101670.84
2023-09-02T05:15:34.645Z,101671.66
2023-09-02T05:20:36.457Z,101670.31
2023-09-02T05:25:38.157Z,101663.72
2023-09-02T05:30:39.986Z,101679.13
2023-09-02T05:35:41.640Z,101677.19
2023-09-02T05:40:44.002Z,101688.50
2023-09-02T05:45:45.802Z,101688.38
2023-09-02T05:50:47.465Z,101697.13
2023-09-02T05:55:56.126Z,101707.41
2023-09-02T06:01:04.702Z,101708.44
2023-09-02T06:06:13.264Z,101711.25
2023-09-02T06:11:16.295Z,101720.53
2023-09-02T06:16:18.021Z,101719.69
2023-09-02T06:21:19.660Z,101715.78
2023-09-02T06:26:21.303Z,101719.22
2023-09-02T06:31:23.417Z,101738.91
2023-09-02T06:36:25.298Z,101753.75
2023-09-02T06:41:26.929Z,101760.44
2023-09-02T06:46:29.222Z,101770.25
2023-09-02T06:51:31.196Z,101771.56
2023-09-02T06:56:34.417Z,101781.03
2023-09-02T07:01:36.036Z,101778.53
2023-09-02T07:06:37.728Z,101787.53
2023-09-02T07:11:39.305Z,101800.59
2023-09-02T07:16:42.149Z,101810.25
2023-09-02T07:21:44.355Z,101823.44
2023-09-02T07:26:48.469Z,101821.00
2023-09-02T07:31:50.110Z,101826.44
2023-09-02T07:36:51.872Z,101836.91
2023-09-02T07:41:53.611Z,101840.63
2023-09-02T07:46:55.324Z,101852.97
2023-09-02T07:51:57.406Z,101855.75
2023-09-02T07:56:59.217Z,101861.78
2023-09-02T08:02:00.869Z,101868.81
2023-09-02T08:07:02.494Z,101887.25
2023-09-02T08:12:04.624Z,101887.50
2023-09-02T08:17:06.744Z,101890.28
2023-09-02T08:22:08.426Z,101891.41
2023-09-02T08:27:10.219Z,101884.09
2023-09-02T08:32:11.848Z,101894.88
2023-09-02T08:37:13.938Z,101907.34
2023-09-02T08:42:21.097Z,101906.28
2023-09-02T08:47:28.679Z,101915.38
2023-09-02T08:52:30.533Z,101914.38
2023-09-02T08:57:33.830Z,101913.78
2023-09-02T09:02:39.274Z,101920.19
2023-09-02T09:07:41.992Z,101924.44
2023-09-02T09:12:45.988Z,101933.22
2023-09-02T09:17:48.715Z,101935.59
2023-09-02T09:22:52.167Z,101941.94
2023-09-02T09:27:53.962Z,101951.75
2023-09-02T09:33:02.654Z,101959.06
2023-09-02T09:38:06.064Z,101986.81
2023-09-02T09:43:19.291Z,101984.31
2023-09-02T09:48:21.423Z,101996.31
2023-09-02T09:53:24.799Z,102004.25
2023-09-02T09:58:26.453Z,102003.78
2023-09-02T10:03:34.472Z,102003.78
2023-09-02T10:08:55.623Z,102013.06
2023-09-02T10:13:58.606Z,102020.97
2023-09-02T10:19:00.986Z,102034.75
2023-09-02T10:24:08.379Z,102038.59
2023-09-02T10:29:13.898Z,102031.03
2023-09-02T10:34:27.215Z,102022.75
2023-09-02T10:40:05.775Z,102035.50
2023-09-02T10:45:08.049Z,102035.00
2023-09-02T10:50:11.029Z,102032.53
2023-09-02T10:55:13.110Z,102038.81
2023-09-02T11:00:18.299Z,102047.88
2023-09-02T11:05:21.245Z,102055.81
2023-09-02T11:10:43.406Z,102056.25
2023-09-02T11:16:12.069Z,102063.78
2023-09-02T11:21:47.771Z,102057.34
2023-09-02T11:26:59.281Z,102058.63
2023-09-02T11:32:03.281Z,102062.88
2023-09-02T11:37:06.198Z,102074.06
2023-09-02T11:42:08.682Z,102059.88
2023-09-02T11:47:15.357Z,102076.47
2023-09-02T11:52:22.168Z,102075.84
2023-09-02T11:57:23.762Z,102086.16
2023-09-02T12:02:26.566Z,102095.19
2023-09-02T12:07:34.653Z,102102.94
2023-09-02T12:12:43.975Z,102099.06
2023-09-02T12:17:48.490Z,102101.41
2023-09-02T12:22:50.763Z,102101.22
2023-09-02T12:27:53.345Z,102111.53
2023-09-02T12:32:58.506Z,102110.69
2023-09-02T12:38:10.148Z,102111.28
2023-09-02T12:43:23.233Z,102107.03
2023-09-02T12:48:25.779Z,102102.28
2023-09-02T12:53:28.145Z,102111.31
2023-09-02T12:58:29.784Z,102112.69
2023-09-02T13:03:31.510Z,102113.88
2023-09-02T13:08:33.571Z,102115.13
2023-09-02T13:13:35.680Z,102113.13
2023-09-02T13:18:37.583Z,102105.75
2023-09-02T13:23:39.659Z,102105.06
2023-09-02T13:28:41.490Z,102103.34
2023-09-02T13:33:43.790Z,102115.56
2023-09-02T13:38:45.624Z,102111.97
2023-09-02T13:43:47.393Z,102111.03
2023-09-02T13:48:49.144Z,102095.75
2023-09-02T13:53:50.864Z,102098.06
2023-09-02T13:58:52.646Z,102100.59
2023-09-02T14:03:54.488Z,102104.66
2023-09-02T14:09:00.396Z,102112.78
2023-09-02T14:14:02.131Z,102100.63
2023-09-02T14:19:03.788Z,102097.44
2023-09-02T14:24:05.915Z,102103.50
2023-09-02T14:29:07.542Z,102124.16
2023-09-02T14:34:12.407Z,102134.09
2023-09-02T14:39:15.543Z,102142.59
2023-09-02T14:44:20.594Z,102144.31
2023-09-02T14:49:22.338Z,102154.38
2023-09-02T14:54:24.074Z,102151.41
2023-09-02T14:59:28.788Z,102149.88
2023-09-02T15:04:31.248Z,102136.69
2023-09-02T15:09:33.058Z,102146.38
2023-09-02T15:14:35.669Z,102151.09
2023-09-02T15:19:39.270Z,102145.94
2023-09-02T15:24:40.962Z,102145.25
2023-09-02T15:29:53.004Z,102139.44
2023-09-02T15:34:56.881Z,102149.38
2023-09-02T15:40:04.104Z,102154.50
2023-09-02T15:45:06.475Z,102150.81
2023-09-02T15:50:08.520Z,102159.91
2023-09-02T15:55:10.221Z,102174.84
2023-09-02T16:00:12.162Z,102179.72
2023-09-02T16:05:16.563Z,102172.47
2023-09-02T16:10:18.478Z,102186.22
2023-09-02T16:15:22.593Z,102183.84
2023-09-02T16:20:24.361Z,102182.38
2023-09-02T16:25:26.113Z,102186.88
2023-09-02T16:30:27.825Z,102191.44
2023-09-02T16:35:29.527Z,102193.16
2023-09-02T16:40:31.176Z,102199.25
2023-09-02T16:45:32.839Z,102200.59
2023-09-02T16:50:34.599Z,102198.84
2023-09-02T16:55:36.295Z,102203.81
2023-09-02T17:00:38.093Z,102212.66
2023-09-02T17:05:45.051Z,102213.72
2023-09-02T17:10:46.732Z,102209.88
2023-09-02T17:15:48.894Z,102210.97
2023-09-02T17:20:50.860Z,102216.53
2023-09-02T17:25:52.599Z,102225.38
2023-09-02T17:31:04.067Z,102222.78
2023-09-02T17:36:06.458Z,102228.19
2023-09-02T17:41:08.814Z,102234.63
2023-09-02T17:46:10.536Z,102235.91
2023-09-02T17:51:12.233Z,102237.88
2023-09-02T17:56:13.968Z,102241.53
2023-09-02T18:01:15.693Z,102239.13
2023-09-02T18:06:17.439Z,102235.03
2023-09-02T18:11:19.033Z,102245.34
2023-09-02T18:16:20.679Z,102247.69
2023-09-02T18:21:22.452Z,102255.63
2023-09-02T18:26:24.254Z,102254.03
2023-09-02T18:31:26.961Z,102254.03
2023-09-02T18:36:28.657Z,102263.66
2023-09-02T18:41:30.298Z,102277.78
2023-09-02T18:46:32.237Z,102285.91
2023-09-02T18:51:33.995Z,102288.47
2023-09-02T18:56:37.676Z,102280.03
2023-09-02T19:01:39.489Z,102292.69
2023-09-02T19:06:43.378Z,102301.50
2023-09-02T19:11:46.149Z,102296.91
2023-09-02T19:16:47.838Z,102309.72
2023-09-02T19:21:49.684Z,102320.03
2023-09-02T19:26:51.532Z,102340.63
2023-09-02T19:31:53.193Z,102343.81
2023-09-02T19:36:54.841Z,102343.06
2023-09-02T19:41:59.230Z,102350.13
2023-09-02T19:47:01.013Z,102353.34
2023-09-02T19:52:02.661Z,102350.22
2023-09-02T19:57:04.504Z,102361.22
2023-09-02T20:02:06.819Z,102365.94
2023-09-02T20:07:08.580Z,102370.50
2023-09-02T20:12:10.248Z,102382.03
2023-09-02T20:17:12.121Z,102386.47
2023-09-02T20:22:17.442Z,102386.41
2023-09-02T20:27:19.836Z,102390.16
2023-09-02T20:32:21.617Z,102400.09
2023-09-02T20:37:23.486Z,102399.19
2023-09-02T20:42:25.197Z,102409.34
2023-09-02T20:47:26.881Z,102418.19
2023-09-02T20:52:28.860Z,102416.16
2023-09-02T20:57:30.615Z,102416.66
2023-09-02T21:02:32.375Z,102417.34
2023-09-02T21:07:34.229Z,102409.94
2023-09-02T21:12:35.875Z,102408.28
2023-09-02T21:17:37.608Z,102409.16
2023-09-02T21:22:39.303Z,102425.19
2023-09-02T21:27:40.917Z,102436.75
2023-09-02T21:32:43.358Z,102432.13
2023-09-02T21:37:46.528Z,102438.78
2023-09-02T21:42:48.150Z,102463.63
2023-09-02T21:47:49.796Z,102477.56
2023-09-02T21:52:51.543Z,102482.88
2023-09-02T21:57:53.222Z,102479.78
2023-09-02T22:02:55.116Z,102485.75
2023-09-02T22:07:56.861Z,102488.22
2023-09-02T22:12:58.614Z,102492.44
2023-09-02T22:18:00.354Z,102501.38
2023-09-02T22:23:02.094Z,102501.72
2023-09-02T22:28:03.884Z,102488.69
2023-09-02T22:33:05.941Z,102487.72
2023-09-02T22:38:10.316Z,102470.50
2023-09-02T22:43:12.439Z,102466.09
2023-09-02T22:48:17.099Z,102465.59
2023-09-02T22:53:20.170Z,102472.19
2023-09-02T22:58:22.283Z,102469.13
2023-09-02T23:03:23.987Z,102486.56
2023-09-02T23:08:25.633Z,102484.50
2023-09-02T23:13:28.079Z,102498.78
2023-09-02T23:18:29.823Z,102506.94
2023-09-02T23:23:31.493Z,102506.25
2023-09-02T23:28:33.121Z,102505.22
2023-09-02T23:33:34.874Z,102498.09
2023-09-02T23:38:36.633Z,102495.38
2023-09-02T23:43:38.389Z,102496.13
2023-09-02T23:48:42.289Z,102500.03
2023-09-02T23:53:45.262Z,102513.47
2023-09-02T23:58:46.883Z,102516.78
